sensor_id;sensor_type;location;lat;lon;timestamp;pressure;altitude;pressure_sealevel;temperature;humidity
38900;BME280;24660;43.238;26.576;2023-01-09T00:01:52;99822.59;;;-1.05;100.00
38900;BME280;24660;43.238;26.576;2023-01-09T00:04:17;99818.38;;;-1.10;100.00
38900;BME280;24660;43.238;26.576;2023-01-09T00:06:43;99820.34;;;-0.87;100.00
38900;BME280;24660;43.238;26.576;2023-01-09T00:09:10;99825.53;;;-0.86;100.00
38900;BME280;24660;43.238;26.576;2023-01-09T00:11:36;99821.53;;;-0.99;100.00
38900;BME280;24660;43.238;26.576;2023-01-09T00:14:01;99820.91;;;-1.07;100.00
38900;BME280;24660;43.238;26.576;2023-01-09T00:16:27;99821.53;;;-0.99;100.00
38900;BME280;24660;43.238;26.576;2023-01-09T00:18:52;99819.66;;;-0.94;100.00
38900;BME280;24660;43.238;26.576;2023-01-09T00:21:17;99819.16;;;-1.07;100.00
38900;BME280;24660;43.238;26.576;2023-01-09T00:23:43;99806.16;;;-1.11;100.00
38900;BME280;24660;43.238;26.576;2023-01-09T00:26:16;99808.50;;;-1.02;100.00
38900;BME280;24660;43.238;26.576;2023-01-09T00:28:43;99816.72;;;-1.14;100.00
38900;BME280;24660;43.238;26.576;2023-01-09T00:31:08;99812.19;;;-1.08;100.00
38900;BME280;24660;43.238;26.576;2023-01-09T00:33:35;99812.66;;;-0.94;100.00
38900;BME280;24660;43.238;26.576;2023-01-09T00:36:01;99805.25;;;-1.10;100.00
38900;BME280;24660;43.238;26.576;2023-01-09T00:38:27;99808.78;;;-1.11;100.00
38900;BME280;24660;43.238;26.576;2023-01-09T00:40:52;99809.63;;;-0.80;100.00
38900;BME280;24660;43.238;26.576;2023-01-09T00:43:18;99799.03;;;-0.77;100.00
38900;BME280;24660;43.238;26.576;2023-01-09T00:45:44;99815.31;;;0.46;100.00
38900;BME280;24660;43.238;26.576;2023-01-09T00:48:11;99814.28;;;0.50;100.00
38900;BME280;24660;43.238;26.576;2023-01-09T00:50:37;99811.72;;;0.74;100.00
38900;BME280;24660;43.238;26.576;2023-01-09T00:53:07;99806.84;;;0.63;100.00
38900;BME280;24660;43.238;26.576;2023-01-09T00:55:34;99823.78;;;1.96;100.00
38900;BME280;24660;43.238;26.576;2023-01-09T00:58:00;99827.28;;;1.97;100.00
38900;BME280;24660;43.238;26.576;2023-01-09T01:00:27;99833.78;;;1.88;100.00
38900;BME280;24660;43.238;26.576;2023-01-09T01:02:52;99830.44;;;1.85;100.00
38900;BME280;24660;43.238;26.576;2023-01-09T01:05:17;99823.59;;;2.23;100.00
38900;BME280;24660;43.238;26.576;2023-01-09T01:07:58;99814.56;;;1.86;100.00
38900;BME280;24660;43.238;26.576;2023-01-09T01:10:24;99811.63;;;1.48;100.00
38900;BME280;24660;43.238;26.576;2023-01-09T01:12:50;99807.94;;;0.81;100.00
38900;BME280;24660;43.238;26.576;2023-01-09T01:15:16;99793.06;;;0.80;100.00
38900;BME280;24660;43.238;26.576;2023-01-09T01:17:41;99786.91;;;0.81;100.00
38900;BME280;24660;43.238;26.576;2023-01-09T01:20:09;99780.63;;;0.85;100.00
38900;BME280;24660;43.238;26.576;2023-01-09T01:22:35;99778.56;;;0.68;100.00
38900;BME280;24660;43.238;26.576;2023-01-09T01:25:01;99770.00;;;0.38;100.00
38900;BME280;24660;43.238;26.576;2023-01-09T01:27:26;99764.75;;;0.12;100.00
38900;BME280;24660;43.238;26.576;2023-01-09T01:29:52;99760.75;;;-0.26;100.00
38900;BME280;24660;43.238;26.576;2023-01-09T01:32:17;99750.53;;;-0.64;100.00
38900;BME280;24660;43.238;26.576;2023-01-09T01:34:42;99755.81;;;-0.65;100.00
38900;BME280;24660;43.238;26.576;2023-01-09T01:37:08;99738.38;;;-0.96;100.00
38900;BME280;24660;43.238;26.576;2023-01-09T01:39:33;99740.25;;;-0.71;100.00
38900;BME280;24660;43.238;26.576;2023-01-09T01:41:59;99738.50;;;-1.00;100.00
38900;BME280;24660;43.238;26.576;2023-01-09T01:47:04;99738.38;;;-0.12;100.00
38900;BME280;24660;43.238;26.576;2023-01-09T01:49:30;99731.56;;;-0.45;100.00
38900;BME280;24660;43.238;26.576;2023-01-09T01:51:55;99733.34;;;-0.46;100.00
38900;BME280;24660;43.238;26.576;2023-01-09T01:54:22;99738.78;;;-0.80;100.00
38900;BME280;24660;43.238;26.576;2023-01-09T01:56:49;99736.53;;;-0.64;100.00
38900;BME280;24660;43.238;26.576;2023-01-09T02:01:44;99730.09;;;-0.82;100.00
38900;BME280;24660;43.238;26.576;2023-01-09T02:04:10;99725.66;;;-0.80;100.00
38900;BME280;24660;43.238;26.576;2023-01-09T02:06:36;99721.00;;;-0.44;100.00
38900;BME280;24660;43.238;26.576;2023-01-09T02:09:02;99713.66;;;-0.88;100.00
38900;BME280;24660;43.238;26.576;2023-01-09T02:11:28;99716.00;;;-0.79;100.00
38900;BME280;24660;43.238;26.576;2023-01-09T02:13:54;99709.75;;;-0.75;100.00
38900;BME280;24660;43.238;26.576;2023-01-09T02:16:26;99711.41;;;-0.45;100.00
38900;BME280;24660;43.238;26.576;2023-01-09T02:21:27;99705.69;;;-0.57;100.00
38900;BME280;24660;43.238;26.576;2023-01-09T02:24:07;99709.16;;;-0.55;100.00
38900;BME280;24660;43.238;26.576;2023-01-09T02:34:23;99696.69;;;-0.77;100.00
38900;BME280;24660;43.238;26.576;2023-01-09T02:44:23;99694.38;;;-0.87;100.00
38900;BME280;24660;43.238;26.576;2023-01-09T02:49:31;99691.53;;;-0.80;100.00
38900;BME280;24660;43.238;26.576;2023-01-09T02:52:00;99695.25;;;-0.87;100.00
38900;BME280;24660;43.238;26.576;2023-01-09T02:59:29;99687.38;;;-1.16;100.00
38900;BME280;24660;43.238;26.576;2023-01-09T03:02:07;99679.72;;;-1.23;100.00
38900;BME280;24660;43.238;26.576;2023-01-09T03:07:01;99671.72;;;-0.90;100.00
38900;BME280;24660;43.238;26.576;2023-01-09T03:09:27;99670.84;;;-1.18;100.00
38900;BME280;24660;43.238;26.576;2023-01-09T03:11:59;99664.88;;;-0.94;100.00
38900;BME280;24660;43.238;26.576;2023-01-09T03:14:27;99668.66;;;-1.04;100.00
38900;BME280;24660;43.238;26.576;2023-01-09T03:16:55;99674.50;;;-1.24;100.00
38900;BME280;24660;43.238;26.576;2023-01-09T03:19:23;99667.19;;;-0.85;100.00
38900;BME280;24660;43.238;26.576;2023-01-09T03:21:49;99662.19;;;-0.65;100.00
38900;BME280;24660;43.238;26.576;2023-01-09T03:24:15;99666.31;;;-0.31;100.00
38900;BME280;24660;43.238;26.576;2023-01-09T03:26:41;99670.69;;;-0.84;100.00
38900;BME280;24660;43.238;26.576;2023-01-09T03:29:06;99661.84;;;-0.27;100.00
38900;BME280;24660;43.238;26.576;2023-01-09T03:31:31;99662.09;;;-0.35;100.00
38900;BME280;24660;43.238;26.576;2023-01-09T03:33:57;99659.19;;;-0.26;100.00
38900;BME280;24660;43.238;26.576;2023-01-09T03:36:22;99657.59;;;-0.58;100.00
38900;BME280;24660;43.238;26.576;2023-01-09T03:38:48;99665.28;;;-0.25;100.00
38900;BME280;24660;43.238;26.576;2023-01-09T03:41:13;99656.78;;;-0.34;100.00
38900;BME280;24660;43.238;26.576;2023-01-09T03:43:39;99662.91;;;0.18;100.00
38900;BME280;24660;43.238;26.576;2023-01-09T03:46:04;99674.97;;;0.24;100.00
38900;BME280;24660;43.238;26.576;2023-01-09T03:48:29;99666.88;;;0.05;100.00
38900;BME280;24660;43.238;26.576;2023-01-09T03:50:55;99668.09;;;0.20;100.00
38900;BME280;24660;43.238;26.576;2023-01-09T03:53:21;99664.34;;;-0.77;100.00
38900;BME280;24660;43.238;26.576;2023-01-09T03:55:47;99671.97;;;-0.17;100.00
38900;BME280;24660;43.238;26.576;2023-01-09T03:58:13;99669.63;;;-0.79;100.00
38900;BME280;24660;43.238;26.576;2023-01-09T04:00:39;99669.34;;;-0.43;100.00
38900;BME280;24660;43.238;26.576;2023-01-09T04:03:05;99670.91;;;0.15;100.00
38900;BME280;24660;43.238;26.576;2023-01-09T04:05:30;99682.09;;;1.15;100.00
38900;BME280;24660;43.238;26.576;2023-01-09T04:07:55;99677.81;;;0.18;100.00
38900;BME280;24660;43.238;26.576;2023-01-09T04:10:20;99685.16;;;0.33;100.00
38900;BME280;24660;43.238;26.576;2023-01-09T04:12:46;99670.31;;;1.02;100.00
38900;BME280;24660;43.238;26.576;2023-01-09T04:15:11;99693.75;;;1.32;100.00
38900;BME280;24660;43.238;26.576;2023-01-09T04:17:36;99675.91;;;1.60;100.00
38900;BME280;24660;43.238;26.576;2023-01-09T04:20:02;99696.22;;;2.00;100.00
38900;BME280;24660;43.238;26.576;2023-01-09T04:22:27;99693.81;;;1.94;100.00
38900;BME280;24660;43.238;26.576;2023-01-09T04:24:55;99691.66;;;1.62;100.00
38900;BME280;24660;43.238;26.576;2023-01-09T04:27:20;99697.66;;;1.87;100.00
38900;BME280;24660;43.238;26.576;2023-01-09T04:29:45;99693.81;;;1.94;100.00
38900;BME280;24660;43.238;26.576;2023-01-09T04:32:11;99691.09;;;1.54;100.00
38900;BME280;24660;43.238;26.576;2023-01-09T04:34:36;99687.00;;;1.46;100.00
38900;BME280;24660;43.238;26.576;2023-01-09T04:37:01;99680.44;;;1.13;100.00
38900;BME280;24660;43.238;26.576;2023-01-09T04:39:27;99676.19;;;0.87;100.00
38900;BME280;24660;43.238;26.576;2023-01-09T04:41:52;99680.75;;;0.58;100.00
38900;BME280;24660;43.238;26.576;2023-01-09T04:44:19;99675.97;;;0.45;100.00
38900;BME280;24660;43.238;26.576;2023-01-09T04:46:45;99670.97;;;0.12;100.00
38900;BME280;24660;43.238;26.576;2023-01-09T04:49:10;99674.28;;;0.19;100.00
38900;BME280;24660;43.238;26.576;2023-01-09T04:51:35;99674.56;;;-0.15;100.00
38900;BME280;24660;43.238;26.576;2023-01-09T04:54:01;99677.53;;;0.01;100.00
38900;BME280;24660;43.238;26.576;2023-01-09T04:56:26;99683.38;;;0.34;100.00
38900;BME280;24660;43.238;26.576;2023-01-09T04:58:51;99686.88;;;0.34;100.00
38900;BME280;24660;43.238;26.576;2023-01-09T05:01:17;99695.59;;;0.59;100.00
38900;BME280;24660;43.238;26.576;2023-01-09T05:03:42;99698.50;;;0.52;100.00
38900;BME280;24660;43.238;26.576;2023-01-09T05:06:07;99701.06;;;1.02;100.00
38900;BME280;24660;43.238;26.576;2023-01-09T05:08:32;99705.88;;;1.36;100.00
38900;BME280;24660;43.238;26.576;2023-01-09T05:10:58;99715.78;;;1.95;100.00
38900;BME280;24660;43.238;26.576;2023-01-09T05:13:24;99708.81;;;1.28;100.00
38900;BME280;24660;43.238;26.576;2023-01-09T05:15:50;99707.47;;;1.84;100.00
38900;BME280;24660;43.238;26.576;2023-01-09T05:18:15;99713.47;;;1.87;100.00
38900;BME280;24660;43.238;26.576;2023-01-09T05:20:40;99716.69;;;1.94;100.00
38900;BME280;24660;43.238;26.576;2023-01-09T05:23:06;99713.75;;;2.22;100.00
38900;BME280;24660;43.238;26.576;2023-01-09T05:25:31;99720.22;;;2.35;100.00
38900;BME280;24660;43.238;26.576;2023-01-09T05:27:57;99714.75;;;2.60;100.00
38900;BME280;24660;43.238;26.576;2023-01-09T05:30:23;99718.13;;;2.43;100.00
38900;BME280;24660;43.238;26.576;2023-01-09T05:32:49;99714.09;;;2.14;100.00
38900;BME280;24660;43.238;26.576;2023-01-09T05:35:14;99700.69;;;1.11;100.00
38900;BME280;24660;43.238;26.576;2023-01-09T05:37:39;99695.75;;;1.25;100.00
38900;BME280;24660;43.238;26.576;2023-01-09T05:40:05;99687.44;;;0.91;100.00
38900;BME280;24660;43.238;26.576;2023-01-09T05:42:30;99688.19;;;0.71;100.00
38900;BME280;24660;43.238;26.576;2023-01-09T05:44:56;99697.16;;;0.40;100.00
38900;BME280;24660;43.238;26.576;2023-01-09T05:47:21;99697.44;;;0.57;100.00
38900;BME280;24660;43.238;26.576;2023-01-09T05:49:47;99691.03;;;-0.10;100.00
38900;BME280;24660;43.238;26.576;2023-01-09T05:52:12;99690.69;;;0.01;100.00
38900;BME280;24660;43.238;26.576;2023-01-09T05:54:37;99688.66;;;-0.18;100.00
38900;BME280;24660;43.238;26.576;2023-01-09T05:57:03;99690.03;;;-0.61;100.00
38900;BME280;24660;43.238;26.576;2023-01-09T05:59:29;99692.22;;;-0.47;100.00
38900;BME280;24660;43.238;26.576;2023-01-09T06:01:54;99687.03;;;-0.76;100.00
38900;BME280;24660;43.238;26.576;2023-01-09T06:04:19;99698.13;;;-0.12;100.00
38900;BME280;24660;43.238;26.576;2023-01-09T06:06:45;99687.13;;;-0.51;100.00
38900;BME280;24660;43.238;26.576;2023-01-09T06:09:11;99697.09;;;-0.35;100.00
38900;BME280;24660;43.238;26.576;2023-01-09T06:11:36;99697.56;;;-0.22;100.00
38900;BME280;24660;43.238;26.576;2023-01-09T06:14:02;99694.63;;;-0.39;100.00
38900;BME280;24660;43.238;26.576;2023-01-09T06:16:30;99690.25;;;-0.67;100.00
38900;BME280;24660;43.238;26.576;2023-01-09T06:18:55;99684.25;;;-0.70;100.00
38900;BME280;24660;43.238;26.576;2023-01-09T06:21:21;99683.63;;;-0.24;100.00
38900;BME280;24660;43.238;26.576;2023-01-09T06:23:46;99689.63;;;-0.20;100.00
38900;BME280;24660;43.238;26.576;2023-01-09T06:26:11;99690.06;;;-0.34;100.00
38900;BME280;24660;43.238;26.576;2023-01-09T06:28:37;99685.50;;;-0.27;100.00
38900;BME280;24660;43.238;26.576;2023-01-09T06:31:02;99687.28;;;-0.30;100.00
38900;BME280;24660;43.238;26.576;2023-01-09T06:33:46;99689.47;;;-0.42;100.00
38900;BME280;24660;43.238;26.576;2023-01-09T06:36:34;99693.25;;;-0.24;100.00
38900;BME280;24660;43.238;26.576;2023-01-09T06:39:00;99696.94;;;-0.30;100.00
38900;BME280;24660;43.238;26.576;2023-01-09T06:41:25;99700.22;;;0.03;100.00
38900;BME280;24660;43.238;26.576;2023-01-09T06:43:53;99692.13;;;-0.17;100.00
38900;BME280;24660;43.238;26.576;2023-01-09T06:46:18;99690.53;;;0.05;100.00
38900;BME280;24660;43.238;26.576;2023-01-09T06:48:43;99687.31;;;0.47;100.00
38900;BME280;24660;43.238;26.576;2023-01-09T06:51:09;99687.94;;;0.53;100.00
38900;BME280;24660;43.238;26.576;2023-01-09T06:53:34;99704.47;;;0.57;100.00
38900;BME280;24660;43.238;26.576;2023-01-09T06:55:59;99696.00;;;0.96;100.00
38900;BME280;24660;43.238;26.576;2023-01-09T06:58:26;99691.94;;;1.10;100.00
38900;BME280;24660;43.238;26.576;2023-01-09T07:00:52;99676.09;;;1.34;100.00
38900;BME280;24660;43.238;26.576;2023-01-09T07:03:19;99680.22;;;1.41;100.00
38900;BME280;24660;43.238;26.576;2023-01-09T07:05:46;99678.44;;;1.41;100.00
38900;BME280;24660;43.238;26.576;2023-01-09T07:08:12;99668.94;;;2.01;100.00
38900;BME280;24660;43.238;26.576;2023-01-09T07:10:39;99669.19;;;2.56;100.00
38900;BME280;24660;43.238;26.576;2023-01-09T07:13:04;99667.66;;;2.51;100.00
38900;BME280;24660;43.238;26.576;2023-01-09T07:15:29;99672.78;;;3.31;100.00
38900;BME280;24660;43.238;26.576;2023-01-09T07:17:55;99660.53;;;4.17;100.00
38900;BME280;24660;43.238;26.576;2023-01-09T07:20:20;99658.44;;;5.06;100.00
38900;BME280;24660;43.238;26.576;2023-01-09T07:22:45;99663.56;;;5.72;100.00
38900;BME280;24660;43.238;26.576;2023-01-09T07:25:11;99639.28;;;6.10;100.00
38900;BME280;24660;43.238;26.576;2023-01-09T07:27:36;99616.72;;;5.57;100.00
38900;BME280;24660;43.238;26.576;2023-01-09T07:30:02;99608.63;;;5.74;100.00
38900;BME280;24660;43.238;26.576;2023-01-09T07:32:28;99605.53;;;5.82;100.00
38900;BME280;24660;43.238;26.576;2023-01-09T07:34:53;99609.44;;;6.06;100.00
38900;BME280;24660;43.238;26.576;2023-01-09T07:37:18;99597.41;;;6.15;100.00
38900;BME280;24660;43.238;26.576;2023-01-09T07:39:44;99597.09;;;6.05;100.00
38900;BME280;24660;43.238;26.576;2023-01-09T07:42:09;99595.34;;;6.34;100.00
38900;BME280;24660;43.238;26.576;2023-01-09T07:44:35;99602.28;;;6.51;100.00
38900;BME280;24660;43.238;26.576;2023-01-09T07:47:00;99586.25;;;6.67;100.00
38900;BME280;24660;43.238;26.576;2023-01-09T07:49:26;99581.13;;;6.78;100.00
38900;BME280;24660;43.238;26.576;2023-01-09T07:51:51;99575.69;;;6.94;100.00
38900;BME280;24660;43.238;26.576;2023-01-09T07:54:16;99582.00;;;7.05;100.00
38900;BME280;24660;43.238;26.576;2023-01-09T07:56:42;99578.53;;;7.18;100.00
38900;BME280;24660;43.238;26.576;2023-01-09T07:59:07;99587.09;;;7.23;100.00
38900;BME280;24660;43.238;26.576;2023-01-09T08:01:33;99571.84;;;7.39;100.00
38900;BME280;24660;43.238;26.576;2023-01-09T08:03:58;99586.44;;;7.46;100.00
38900;BME280;24660;43.238;26.576;2023-01-09T08:06:23;99581.25;;;7.57;100.00
38900;BME280;24660;43.238;26.576;2023-01-09T08:08:49;99582.78;;;7.74;100.00
38900;BME280;24660;43.238;26.576;2023-01-09T08:11:14;99583.88;;;7.84;100.00
38900;BME280;24660;43.238;26.576;2023-01-09T08:13:39;99593.56;;;7.85;100.00
38900;BME280;24660;43.238;26.576;2023-01-09T08:16:05;99581.38;;;8.08;100.00
38900;BME280;24660;43.238;26.576;2023-01-09T08:18:30;99570.94;;;8.18;100.00
38900;BME280;24660;43.238;26.576;2023-01-09T08:20:55;99572.75;;;8.30;100.00
38900;BME280;24660;43.238;26.576;2023-01-09T08:23:21;99570.75;;;8.33;100.00
38900;BME280;24660;43.238;26.576;2023-01-09T08:25:46;99573.09;;;8.38;100.00
38900;BME280;24660;43.238;26.576;2023-01-09T08:28:11;99567.31;;;8.70;100.00
38900;BME280;24660;43.238;26.576;2023-01-09T08:30:37;99570.19;;;8.79;100.00
38900;BME280;24660;43.238;26.576;2023-01-09T08:33:02;99570.81;;;8.70;100.00
38900;BME280;24660;43.238;26.576;2023-01-09T08:35:28;99568.81;;;8.74;100.00
38900;BME280;24660;43.238;26.576;2023-01-09T08:37:53;99576.78;;;9.23;100.00
38900;BME280;24660;43.238;26.576;2023-01-09T08:40:18;99565.72;;;9.40;100.00
38900;BME280;24660;43.238;26.576;2023-01-09T08:42:44;99563.84;;;9.53;100.00
38900;BME280;24660;43.238;26.576;2023-01-09T08:45:24;99559.25;;;9.32;100.00
38900;BME280;24660;43.238;26.576;2023-01-09T08:48:06;99554.47;;;9.83;100.00
38900;BME280;24660;43.238;26.576;2023-01-09T08:50:31;99552.97;;;9.68;100.00
38900;BME280;24660;43.238;26.576;2023-01-09T08:52:57;99540.03;;;9.74;100.00
38900;BME280;24660;43.238;26.576;2023-01-09T08:55:22;99553.25;;;9.76;100.00
38900;BME280;24660;43.238;26.576;2023-01-09T08:57:48;99548.69;;;9.89;100.00
38900;BME280;24660;43.238;26.576;2023-01-09T09:00:14;99550.22;;;9.80;100.00
38900;BME280;24660;43.238;26.576;2023-01-09T09:02:39;99544.72;;;9.60;100.00
38900;BME280;24660;43.238;26.576;2023-01-09T09:05:05;99547.41;;;10.17;100.00
38900;BME280;24660;43.238;26.576;2023-01-09T09:07:30;99534.97;;;10.29;100.00
38900;BME280;24660;43.238;26.576;2023-01-09T09:09:56;99522.75;;;10.02;100.00
38900;BME280;24660;43.238;26.576;2023-01-09T09:12:21;99525.44;;;10.14;100.00
38900;BME280;24660;43.238;26.576;2023-01-09T09:14:47;99522.25;;;10.08;100.00
38900;BME280;24660;43.238;26.576;2023-01-09T09:17:27;99517.13;;;9.94;100.00
38900;BME280;24660;43.238;26.576;2023-01-09T09:19:53;99521.59;;;10.51;100.00
38900;BME280;24660;43.238;26.576;2023-01-09T09:22:18;99518.66;;;10.54;100.00
38900;BME280;24660;43.238;26.576;2023-01-09T09:24:43;99514.56;;;10.73;100.00
38900;BME280;24660;43.238;26.576;2023-01-09T09:27:09;99510.03;;;10.84;100.00
38900;BME280;24660;43.238;26.576;2023-01-09T09:29:34;99513.88;;;11.03;100.00
38900;BME280;24660;43.238;26.576;2023-01-09T09:31:59;99508.09;;;10.75;100.00
38900;BME280;24660;43.238;26.576;2023-01-09T09:34:25;99503.22;;;10.80;100.00
38900;BME280;24660;43.238;26.576;2023-01-09T09:36:50;99492.75;;;10.88;100.00
38900;BME280;24660;43.238;26.576;2023-01-09T09:39:15;99495.56;;;10.98;100.00
38900;BME280;24660;43.238;26.576;2023-01-09T09:47:12;99491.06;;;10.98;100.00
38900;BME280;24660;43.238;26.576;2023-01-09T09:49:45;99480.72;;;10.94;100.00
38900;BME280;24660;43.238;26.576;2023-01-09T09:52:19;99479.16;;;10.80;100.00
38900;BME280;24660;43.238;26.576;2023-01-09T09:54:48;99454.75;;;10.74;100.00
38900;BME280;24660;43.238;26.576;2023-01-09T09:57:16;99469.31;;;10.81;100.00
38900;BME280;24660;43.238;26.576;2023-01-09T09:59:43;99450.75;;;10.68;100.00
38900;BME280;24660;43.238;26.576;2023-01-09T10:04:55;99444.91;;;10.74;100.00
38900;BME280;24660;43.238;26.576;2023-01-09T10:07:27;99440.53;;;10.84;100.00
38900;BME280;24660;43.238;26.576;2023-01-09T10:09:59;99448.28;;;10.87;100.00
38900;BME280;24660;43.238;26.576;2023-01-09T10:14:51;99443.41;;;10.92;100.00
38900;BME280;24660;43.238;26.576;2023-01-09T10:19:54;99433.75;;;11.12;100.00
38900;BME280;24660;43.238;26.576;2023-01-09T10:27:26;99426.72;;;11.32;100.00
38900;BME280;24660;43.238;26.576;2023-01-09T10:37:36;99399.38;;;11.28;100.00
38900;BME280;24660;43.238;26.576;2023-01-09T10:42:45;99403.53;;;11.63;98.09
38900;BME280;24660;43.238;26.576;2023-01-09T10:45:16;99402.75;;;11.30;100.00
38900;BME280;24660;43.238;26.576;2023-01-09T10:47:43;99388.13;;;11.55;94.47
38900;BME280;24660;43.238;26.576;2023-01-09T10:52:50;99378.84;;;11.80;88.84
38900;BME280;24660;43.238;26.576;2023-01-09T10:57:58;99384.84;;;11.73;90.73
38900;BME280;24660;43.238;26.576;2023-01-09T11:00:25;99376.78;;;11.94;84.00
38900;BME280;24660;43.238;26.576;2023-01-09T11:02:51;99375.13;;;11.51;87.75
38900;BME280;24660;43.238;26.576;2023-01-09T11:05:21;99378.00;;;11.59;90.80
38900;BME280;24660;43.238;26.576;2023-01-09T11:07:48;99370.94;;;11.79;86.36
38900;BME280;24660;43.238;26.576;2023-01-09T11:10:15;99374.38;;;11.91;84.77
38900;BME280;24660;43.238;26.576;2023-01-09T11:12:40;99369.97;;;11.59;83.49
38900;BME280;24660;43.238;26.576;2023-01-09T11:15:22;99365.97;;;11.53;83.28
38900;BME280;24660;43.238;26.576;2023-01-09T11:17:53;99366.34;;;11.91;82.57
38900;BME280;24660;43.238;26.576;2023-01-09T11:20:23;99375.56;;;11.77;79.78
38900;BME280;24660;43.238;26.576;2023-01-09T11:22:51;99359.53;;;11.56;81.80
38900;BME280;24660;43.238;26.576;2023-01-09T11:25:17;99367.53;;;11.77;82.16
38900;BME280;24660;43.238;26.576;2023-01-09T11:27:43;99364.94;;;11.86;80.17
38900;BME280;24660;43.238;26.576;2023-01-09T11:30:18;99362.97;;;11.88;79.26
38900;BME280;24660;43.238;26.576;2023-01-09T11:32:46;99361.66;;;12.13;77.82
38900;BME280;24660;43.238;26.576;2023-01-09T11:35:14;99359.59;;;11.96;76.67
38900;BME280;24660;43.238;26.576;2023-01-09T11:37:41;99365.84;;;11.97;76.72
38900;BME280;24660;43.238;26.576;2023-01-09T11:40:13;99367.47;;;11.88;76.80
38900;BME280;24660;43.238;26.576;2023-01-09T11:42:41;99362.53;;;11.83;76.61
38900;BME280;24660;43.238;26.576;2023-01-09T11:45:33;99357.38;;;12.01;73.80
38900;BME280;24660;43.238;26.576;2023-01-09T11:47:59;99356.16;;;12.15;72.88
38900;BME280;24660;43.238;26.576;2023-01-09T11:50:26;99355.59;;;12.21;71.01
38900;BME280;24660;43.238;26.576;2023-01-09T11:53:10;99358.13;;;12.13;71.42
38900;BME280;24660;43.238;26.576;2023-01-09T11:55:36;99345.59;;;12.23;71.13
38900;BME280;24660;43.238;26.576;2023-01-09T11:58:01;99346.47;;;12.33;68.61
38900;BME280;24660;43.238;26.576;2023-01-09T12:00:28;99354.75;;;12.21;69.01
38900;BME280;24660;43.238;26.576;2023-01-09T12:05:26;99342.09;;;12.32;69.34
38900;BME280;24660;43.238;26.576;2023-01-09T12:18:12;99341.53;;;12.38;65.23
38900;BME280;24660;43.238;26.576;2023-01-09T12:20:54;99329.41;;;12.34;65.47
38900;BME280;24660;43.238;26.576;2023-01-09T12:33:29;99314.63;;;12.78;62.37
38900;BME280;24660;43.238;26.576;2023-01-09T12:36:08;99319.00;;;12.60;63.01
38900;BME280;24660;43.238;26.576;2023-01-09T12:43:51;99305.19;;;12.74;62.65
38900;BME280;24660;43.238;26.576;2023-01-09T12:46:22;99302.78;;;12.62;62.83
38900;BME280;24660;43.238;26.576;2023-01-09T12:49:00;99296.41;;;12.63;62.26
38900;BME280;24660;43.238;26.576;2023-01-09T12:51:32;99298.09;;;12.25;62.37
38900;BME280;24660;43.238;26.576;2023-01-09T12:54:05;99300.50;;;12.47;61.58
38900;BME280;24660;43.238;26.576;2023-01-09T12:56:36;99295.97;;;12.38;61.86
38900;BME280;24660;43.238;26.576;2023-01-09T13:01:54;99302.47;;;12.45;61.63
38900;BME280;24660;43.238;26.576;2023-01-09T13:04:24;99301.91;;;12.32;60.63
38900;BME280;24660;43.238;26.576;2023-01-09T13:06:55;99300.19;;;12.31;60.91
38900;BME280;24660;43.238;26.576;2023-01-09T13:09:28;99290.06;;;12.44;60.75
38900;BME280;24660;43.238;26.576;2023-01-09T13:12:03;99291.88;;;12.25;62.40
38900;BME280;24660;43.238;26.576;2023-01-09T13:14:42;99288.22;;;12.35;61.85
38900;BME280;24660;43.238;26.576;2023-01-09T13:17:10;99289.06;;;12.26;60.94
38900;BME280;24660;43.238;26.576;2023-01-09T13:19:38;99290.56;;;12.09;62.66
38900;BME280;24660;43.238;26.576;2023-01-09T13:22:04;99286.22;;;12.18;62.41
38900;BME280;24660;43.238;26.576;2023-01-09T13:26:58;99276.16;;;12.01;62.58
38900;BME280;24660;43.238;26.576;2023-01-09T13:29:26;99273.78;;;11.98;63.15
38900;BME280;24660;43.238;26.576;2023-01-09T13:34:20;99271.94;;;11.98;63.44
38900;BME280;24660;43.238;26.576;2023-01-09T13:36:48;99271.72;;;11.80;63.67
38900;BME280;24660;43.238;26.576;2023-01-09T13:39:23;99274.72;;;11.87;63.12
38900;BME280;24660;43.238;26.576;2023-01-09T13:41:51;99272.63;;;11.60;65.35
38900;BME280;24660;43.238;26.576;2023-01-09T13:44:33;99268.97;;;11.61;67.12
38900;BME280;24660;43.238;26.576;2023-01-09T13:46:58;99263.34;;;11.34;66.79
38900;BME280;24660;43.238;26.576;2023-01-09T13:51:56;99262.00;;;11.18;67.00
38900;BME280;24660;43.238;26.576;2023-01-09T13:59:44;99269.91;;;10.99;72.02
38900;BME280;24660;43.238;26.576;2023-01-09T14:04:53;99263.69;;;10.78;77.21
38900;BME280;24660;43.238;26.576;2023-01-09T14:07:20;99253.19;;;10.65;80.27
38900;BME280;24660;43.238;26.576;2023-01-09T14:09:48;99258.88;;;10.72;81.75
38900;BME280;24660;43.238;26.576;2023-01-09T14:12:14;99258.22;;;10.58;81.86
38900;BME280;24660;43.238;26.576;2023-01-09T14:14:42;99248.41;;;10.48;83.84
38900;BME280;24660;43.238;26.576;2023-01-09T14:17:16;99253.25;;;10.22;87.84
38900;BME280;24660;43.238;26.576;2023-01-09T14:19:42;99252.69;;;10.39;87.05
38900;BME280;24660;43.238;26.576;2023-01-09T14:24:49;99241.13;;;10.06;89.13
38900;BME280;24660;43.238;26.576;2023-01-09T14:30:15;99244.81;;;9.83;91.41
38900;BME280;24660;43.238;26.576;2023-01-09T14:32:41;99249.81;;;9.76;90.59
38900;BME280;24660;43.238;26.576;2023-01-09T14:37:33;99244.09;;;9.70;90.95
38900;BME280;24660;43.238;26.576;2023-01-09T14:39:59;99249.69;;;9.67;90.99
38900;BME280;24660;43.238;26.576;2023-01-09T14:42:26;99243.03;;;9.61;89.84
38900;BME280;24660;43.238;26.576;2023-01-09T14:44:53;99245.31;;;9.55;90.95
38900;BME280;24660;43.238;26.576;2023-01-09T14:49:56;99234.94;;;9.29;96.21
38900;BME280;24660;43.238;26.576;2023-01-09T14:52:28;99245.59;;;9.29;96.21